»·PEaware :: N113PF KWJF-KBUR

N113PF :: KWJF-KBUR

FLIGHT INFORMATION

Flight Status: Arrived
Operator: Privately registered:
United States
More flights under this callsign
Pilot: Josh S. (12575)
Aircraft: CESSNA 172 SKYHAWK
(C172)
More flights by this aircraft type
Origin: KWJF Gen Fox
United States
Destination: KBUR Bob Hope-Burbank
United States
More flights between these airports :: More routes between these airports
Route: +EDWP4
File this flight plan on PilotEdge
Remarks: Own Weather
Altitude:
(Current/Filed)
8,000ft
Speed:
(Current/Filed)
110kts
Departed: 09-Feb-19 05:17 PM
Arrived: 09-Feb-19 06:08 PM
Distance/Time
Traveled:
33nm/0:51
Distance/Time
To Go:
Arrived

Flight Plot

Page will automatically refresh every two minutes.

Flight plan parsing failed; only flown route is shown


Map Options




Map Legend


Flown Route
Filed Route
Departure Airport
Arrival Airport
Navaid (VOR, NDB)
Fix

Horizontal Profiles

Position Reports

Time Latitude Longitude Heading Altitude Ground
Speed
09-Feb-19 16:50 34.739068 -118.217234 254 2355ft 0kts
09-Feb-19 16:51 34.739068 -118.217234 254 2355ft 0kts
09-Feb-19 16:52 34.739068 -118.217234 254 2355ft 0kts
09-Feb-19 16:53 34.739068 -118.217234 254 2355ft 0kts
09-Feb-19 16:54 34.739068 -118.217234 254 2355ft 0kts
09-Feb-19 16:55 34.739068 -118.217234 254 2355ft 0kts
09-Feb-19 16:56 34.739068 -118.217234 254 2355ft 0kts
09-Feb-19 16:57 34.739068 -118.217234 254 2355ft 0kts
09-Feb-19 16:58 34.739068 -118.217234 254 2355ft 0kts
09-Feb-19 16:59 34.739068 -118.217234 254 2355ft 0kts
09-Feb-19 17:00 34.739068 -118.217234 254 2355ft 0kts
09-Feb-19 17:01 34.739068 -118.217234 254 2355ft 0kts
09-Feb-19 17:02 34.740250 -118.217748 37 2355ft 8kts
09-Feb-19 17:03 34.741133 -118.214653 71 2355ft 9kts
09-Feb-19 17:04 34.741936 -118.211652 70 2355ft 9kts
09-Feb-19 17:05 34.742828 -118.208345 71 2355ft 10kts
09-Feb-19 17:06 34.742975 -118.206955 290 2355ft 0kts
09-Feb-19 17:07 34.742975 -118.206955 290 2355ft 0kts
09-Feb-19 17:08 34.742975 -118.206955 290 2355ft 0kts
09-Feb-19 17:09 34.742975 -118.206955 290 2355ft 0kts
09-Feb-19 17:10 34.742975 -118.206955 290 2355ft 0kts
09-Feb-19 17:11 34.743346 -118.207059 344 2355ft 4kts
09-Feb-19 17:12 34.743354 -118.207062 344 2355ft 0kts
09-Feb-19 17:13 34.743354 -118.207062 344 2355ft 0kts
09-Feb-19 17:14 34.743354 -118.207062 344 2355ft 0kts
09-Feb-19 17:15 34.743365 -118.207065 341 2355ft 1kts
09-Feb-19 17:16 34.741931 -118.215613 248 2511ft 70kts
09-Feb-19 17:17 34.730362 -118.224540 112 3445ft 93kts
09-Feb-19 17:18 34.723821 -118.195735 116 4411ft 88kts
09-Feb-19 17:19 34.710470 -118.170949 138 5268ft 89kts
09-Feb-19 17:20 34.694031 -118.148284 140 6141ft 90kts
09-Feb-19 17:21 34.677916 -118.126941 139 6921ft 93kts
09-Feb-19 17:22 34.660238 -118.103237 137 7724ft 96kts
09-Feb-19 17:23 34.638700 -118.075893 138 7943ft 127kts
09-Feb-19 17:24 34.614765 -118.073691 267 7934ft 102kts
09-Feb-19 17:25 34.615945 -118.108425 271 7939ft 103kts
09-Feb-19 17:26 34.612717 -118.142603 257 7939ft 103kts
09-Feb-19 17:27 34.605989 -118.176464 257 7939ft 103kts
09-Feb-19 17:28 34.599273 -118.210244 257 7939ft 103kts
09-Feb-19 17:29 34.592525 -118.244158 257 7939ft 103kts
09-Feb-19 17:30 34.585796 -118.278006 258 7939ft 103kts
09-Feb-19 17:31 34.579071 -118.311819 258 7939ft 103kts
09-Feb-19 17:32 34.570731 -118.345064 254 7939ft 103kts
09-Feb-19 17:33 34.561764 -118.378228 254 7938ft 103kts
09-Feb-19 17:34 34.552812 -118.411352 254 7938ft 103kts
09-Feb-19 17:35 34.536430 -118.437822 222 7641ft 103kts
09-Feb-19 17:36 34.514665 -118.458135 221 7034ft 99kts
09-Feb-19 17:37 34.492216 -118.477005 219 6410ft 98kts
09-Feb-19 17:38 34.471283 -118.497234 226 5953ft 97kts
09-Feb-19 17:39 34.449128 -118.517987 222 5967ft 103kts
09-Feb-19 17:40 34.426187 -118.539500 221 5967ft 104kts
09-Feb-19 17:41 34.403212 -118.561049 222 5966ft 104kts
09-Feb-19 17:42 34.380217 -118.582622 222 5966ft 104kts
09-Feb-19 17:43 34.357236 -118.604165 222 5966ft 104kts
09-Feb-19 17:44 34.334329 -118.625635 221 5966ft 104kts
09-Feb-19 17:45 34.311364 -118.647121 222 5966ft 103kts
09-Feb-19 17:46 34.289718 -118.667170 222 5960ft 86kts
09-Feb-19 17:47 34.271274 -118.683441 218 5965ft 80kts
09-Feb-19 17:48 34.251938 -118.697927 218 5242ft 81kts
09-Feb-19 17:49 34.233553 -118.713359 218 4501ft 82kts
09-Feb-19 17:50 34.219327 -118.733062 239 4386ft 78kts
09-Feb-19 17:51 34.207283 -118.754662 245 4408ft 77kts
09-Feb-19 17:52 34.222340 -118.762376 51 4403ft 103kts
09-Feb-19 17:53 34.224301 -118.728548 94 4408ft 102kts
09-Feb-19 17:54 34.223668 -118.694380 94 4128ft 102kts
09-Feb-19 17:55 34.223593 -118.660270 92 3769ft 100kts
09-Feb-19 17:56 34.223546 -118.626498 93 3712ft 100kts
09-Feb-19 17:57 34.223561 -118.592752 93 3646ft 100kts
09-Feb-19 17:58 34.223737 -118.559227 91 3225ft 99kts
09-Feb-19 17:59 34.223431 -118.525959 94 3131ft 96kts
09-Feb-19 18:00 34.222837 -118.493058 101 3066ft 99kts
09-Feb-19 18:01 34.217700 -118.461287 111 2170ft 93kts
09-Feb-19 18:03 34.212754 -118.430300 109 1563ft 91kts
09-Feb-19 18:04 34.204753 -118.401202 120 1583ft 90kts
09-Feb-19 18:05 34.192743 -118.374798 122 1538ft 90kts
09-Feb-19 18:06 34.187014 -118.345122 93 1506ft 94kts
09-Feb-19 18:07 34.198321 -118.338854 261 1121ft 72kts
09-Feb-19 18:08 34.197686 -118.355849 269 781ft 21kts
09-Feb-19 18:09 34.198606 -118.357977 358 781ft 0kts
09-Feb-19 18:10 34.200018 -118.358674 86 781ft 0kts

Navigation Log

Ident Type
Flight plan parsing failed, navigation log unavailable